»·PEaware :: XOJ557 CYXS-KPDX

XOJ557 :: CYXS-KPDX

FLIGHT INFORMATION

Flight Status: Arrived
Operator:
XOJET
More flights by this operator :: More flights under this callsign
Pilot: Alex K. (14822)
Aircraft: BOMBARDIER BD-100 CHALLENGER 300
(CL30)
More flights by this aircraft type
Origin: CYXS Prince George
Canada
Destination: KPDX Portland Intl
United States
More flights between these airports :: More routes between these airports
Route: +YXS J541 BRYGE SEA HELNS5
File this flight plan on PilotEdge
Remarks: PBN / D1 NAV / RNVD1E2A1 DAT / V DOF / 180303 REG / N350SB EET / KZSE0043 RMK / SIMBRIEF
Altitude:
(Current/Filed)
45,000ft
Speed:
(Current/Filed)
476kts
Departed: 02-Mar-18 06:14 PM
Arrived: 02-Mar-18 07:35 PM
Distance/Time
Traveled:
498nm/1:21
Distance/Time
To Go:
Arrived

Flight Plot

Page will automatically refresh every two minutes.

Flight plan parsing failed; only flown route is shown


Map Options




Map Legend


Flown Route
Filed Route
Departure Airport
Arrival Airport
Navaid (VOR, NDB)
Fix

Horizontal Profiles

Position Reports

Time Latitude Longitude Heading Altitude Ground
Speed
02-Mar-18 18:06 53.885073 -122.682805 359 2262ft 0kts
02-Mar-18 18:07 53.885073 -122.682805 359 2262ft 0kts
02-Mar-18 18:08 53.885073 -122.682805 359 2262ft 0kts
02-Mar-18 18:09 53.885073 -122.682805 359 2262ft 0kts
02-Mar-18 18:10 53.885073 -122.682805 359 2262ft 0kts
02-Mar-18 18:11 53.885073 -122.682805 359 2262ft 0kts
02-Mar-18 18:12 53.885116 -122.682805 359 2262ft 2kts
02-Mar-18 18:13 53.886476 -122.679266 80 2253ft 17kts
02-Mar-18 18:14 53.887562 -122.668362 78 2230ft 24kts
02-Mar-18 18:15 53.884470 -122.665398 170 2220ft 13kts
02-Mar-18 18:16 53.879502 -122.664016 170 2215ft 23kts
02-Mar-18 18:17 53.871578 -122.662420 197 2208ft 31kts
02-Mar-18 18:18 53.868265 -122.663446 114 2205ft 4kts
02-Mar-18 18:19 53.868291 -122.662549 77 2205ft 0kts
02-Mar-18 18:20 53.868372 -122.661770 80 2205ft 9kts
02-Mar-18 18:21 53.889445 -122.667978 342 3607ft 149kts
02-Mar-18 18:22 53.901186 -122.606243 92 7679ft 225kts
02-Mar-18 18:23 53.883649 -122.481452 140 10937ft 339kts
02-Mar-18 18:24 53.789595 -122.476350 188 15457ft 368kts
02-Mar-18 18:25 53.684935 -122.499306 188 19193ft 399kts
02-Mar-18 18:26 53.570833 -122.523414 189 22141ft 433kts
02-Mar-18 18:27 53.448251 -122.549008 190 24729ft 461kts
02-Mar-18 18:28 53.319257 -122.577868 191 27127ft 481kts
02-Mar-18 18:29 53.184563 -122.607935 191 29213ft 499kts
02-Mar-18 18:30 53.049095 -122.638576 182 32081ft 485kts
02-Mar-18 18:31 52.917629 -122.666776 185 33604ft 498kts
02-Mar-18 18:32 52.780367 -122.696655 192 35581ft 491kts
02-Mar-18 18:33 52.649554 -122.725507 191 38503ft 456kts
02-Mar-18 18:34 52.522799 -122.753059 189 39848ft 459kts
02-Mar-18 18:35 52.395295 -122.779470 191 40762ft 468kts
02-Mar-18 18:36 52.265862 -122.806328 191 40887ft 470kts
02-Mar-18 18:37 52.137249 -122.831727 190 40887ft 465kts
02-Mar-18 18:38 52.009956 -122.856311 190 40888ft 463kts
02-Mar-18 18:39 51.883039 -122.880670 190 40886ft 462kts
02-Mar-18 18:40 51.756404 -122.904837 190 40885ft 461kts
02-Mar-18 18:41 51.629506 -122.928864 190 40886ft 459kts
02-Mar-18 18:42 51.503561 -122.952668 190 40886ft 458kts
02-Mar-18 18:43 51.377666 -122.976299 190 40874ft 457kts
02-Mar-18 18:44 51.251419 -122.999857 190 40805ft 458kts
02-Mar-18 18:45 51.125801 -123.023168 190 40805ft 457kts
02-Mar-18 18:46 51.000110 -123.046364 190 40805ft 456kts
02-Mar-18 18:47 50.878127 -123.069000 190 40750ft 456kts
02-Mar-18 18:48 50.753296 -123.093078 189 40752ft 455kts
02-Mar-18 18:49 50.627265 -123.084097 175 40751ft 461kts
02-Mar-18 18:50 50.501073 -123.053014 174 40750ft 460kts
02-Mar-18 18:51 50.375458 -123.020960 174 40751ft 460kts
02-Mar-18 18:52 50.249735 -122.988802 174 40751ft 461kts
02-Mar-18 18:53 50.123881 -122.956785 172 40747ft 455kts
02-Mar-18 18:54 49.999899 -122.925306 172 40749ft 451kts
02-Mar-18 18:55 49.877598 -122.894449 172 40752ft 450kts
02-Mar-18 18:56 49.755024 -122.863664 173 40803ft 448kts
02-Mar-18 18:57 49.633607 -122.833369 173 40991ft 443kts
02-Mar-18 18:58 49.512733 -122.803349 173 40995ft 444kts
02-Mar-18 18:59 49.391488 -122.773382 173 40994ft 444kts
02-Mar-18 19:00 49.270057 -122.743518 172 40994ft 445kts
02-Mar-18 19:01 49.147836 -122.713608 172 40994ft 446kts
02-Mar-18 19:02 49.025848 -122.683932 172 40993ft 446kts
02-Mar-18 19:03 48.903748 -122.654315 172 40993ft 446kts
02-Mar-18 19:04 48.789025 -122.626662 172 40994ft 447kts
02-Mar-18 19:05 48.665958 -122.597133 172 40835ft 451kts
02-Mar-18 19:06 48.542383 -122.567622 172 40857ft 450kts
02-Mar-18 19:07 48.435917 -122.542316 172 40860ft 450kts
02-Mar-18 19:08 48.312811 -122.513188 172 40860ft 450kts
02-Mar-18 19:09 48.189675 -122.484194 172 40859ft 450kts
02-Mar-18 19:10 48.066764 -122.455406 172 40858ft 451kts
02-Mar-18 19:11 47.943020 -122.426534 172 40834ft 451kts
02-Mar-18 19:12 47.828152 -122.399881 172 39717ft 451kts
02-Mar-18 19:13 47.712255 -122.373102 172 38399ft 441kts
02-Mar-18 19:14 47.593677 -122.345828 173 37016ft 429kts
02-Mar-18 19:15 47.478040 -122.319350 173 35617ft 418kts
02-Mar-18 19:16 47.363983 -122.310389 181 34235ft 418kts
02-Mar-18 19:17 47.247841 -122.309803 181 32834ft 419kts
02-Mar-18 19:18 47.132068 -122.309673 181 31428ft 417kts
02-Mar-18 19:19 47.017434 -122.309647 180 30019ft 412kts
02-Mar-18 19:20 46.903535 -122.309610 181 28260ft 414kts
02-Mar-18 19:21 46.792782 -122.309595 181 26350ft 416kts
02-Mar-18 19:22 46.678459 -122.309592 181 24364ft 412kts
02-Mar-18 19:23 46.565195 -122.309593 181 22362ft 404kts
02-Mar-18 19:24 46.456592 -122.309591 182 20364ft 385kts
02-Mar-18 19:25 46.352261 -122.309592 182 18359ft 370kts
02-Mar-18 19:26 46.253211 -122.316989 200 16332ft 338kts
02-Mar-18 19:27 46.172896 -122.358305 202 14309ft 287kts
02-Mar-18 19:28 46.099715 -122.397940 202 12303ft 279kts
02-Mar-18 19:29 46.029246 -122.436659 202 10200ft 270kts
02-Mar-18 19:30 45.961405 -122.473974 203 8978ft 235kts
02-Mar-18 19:31 45.895961 -122.510179 201 8234ft 263kts
02-Mar-18 19:32 45.828465 -122.547298 201 7297ft 278kts
02-Mar-18 19:33 45.785145 -122.627163 255 6367ft 271kts
02-Mar-18 19:34 45.765001 -122.730271 254 5078ft 271kts
02-Mar-18 19:35 45.746071 -122.832318 254 3784ft 250kts
02-Mar-18 19:36 45.699605 -122.856200 147 2995ft 204kts
02-Mar-18 19:37 45.670786 -122.791452 117 2977ft 161kts
02-Mar-18 19:38 45.651976 -122.742802 118 2370ft 127kts
02-Mar-18 19:39 45.634954 -122.698780 119 1704ft 138kts
02-Mar-18 19:40 45.617258 -122.652243 113 871ft 128kts
02-Mar-18 19:41 45.599437 -122.607241 119 277ft 128kts
02-Mar-18 19:42 45.587908 -122.577968 120 36ft 28kts
02-Mar-18 19:43 45.586560 -122.577683 299 36ft 14kts
02-Mar-18 19:44 45.587861 -122.583385 289 36ft 11kts
02-Mar-18 19:45 45.588214 -122.585877 29 36ft 0kts
02-Mar-18 19:46 45.588214 -122.585877 29 36ft 0kts
02-Mar-18 19:47 45.588214 -122.585877 29 36ft 0kts
02-Mar-18 19:48 45.588214 -122.585877 29 36ft 0kts
02-Mar-18 19:49 45.588214 -122.585877 29 36ft 0kts
02-Mar-18 19:50 45.588214 -122.585877 29 36ft 0kts
02-Mar-18 19:51 45.588214 -122.585877 29 36ft 0kts
02-Mar-18 19:52 45.588214 -122.585877 29 36ft 0kts
02-Mar-18 19:53 45.588214 -122.585877 29 36ft 0kts
02-Mar-18 19:54 45.588214 -122.585877 29 36ft 0kts
02-Mar-18 19:55 45.588214 -122.585877 29 36ft 0kts
02-Mar-18 19:56 45.588214 -122.585877 29 36ft 0kts
02-Mar-18 19:57 45.588214 -122.585877 29 36ft 0kts

Navigation Log

Ident Type
Flight plan parsing failed, navigation log unavailable